Time;durP1;ratioP1;P1;durP2;ratioP2;P2;SDS_P1;SDS_P2;PMS_P1;PMS_P2;Temp;Humidity;BMP_temperature;BMP_pressure;BME280_temperature;BME280_humidity;BME280_pressure;Samples;Min_cycle;Max_cycle;Signal;HPM_P1;HPM_P2
2022/01/08 07:16:24;;;;;;;4.05;3.08;;;4.30;56.50;;;;;;5080324;28;20064;-95
2022/01/08 07:18:50;;;;;;;4.72;3.40;;;4.20;57.10;;;;;;5023624;22;20493;-86
2022/01/08 07:21:16;;;;;;;5.90;3.90;;;4.20;57.00;;;;;;5036912;28;20037;-86
2022/01/08 07:23:41;;;;;;;5.60;3.75;;;4.30;57.30;;;;;;5034365;28;20029;-86
2022/01/08 07:26:07;;;;;;;4.63;3.13;;;4.40;57.50;;;;;;5051726;28;20033;-87
2022/01/08 07:28:33;;;;;;;4.72;3.40;;;4.50;57.50;;;;;;5051385;28;20038;-86
2022/01/08 07:30:59;;;;;;;5.30;3.58;;;4.60;57.40;;;;;;5049959;28;20033;-84
2022/01/08 07:33:24;;;;;;;4.20;3.28;;;4.70;62.10;;;;;;5037686;28;20036;-83
2022/01/08 07:35:50;;;;;;;7.55;4.03;;;4.80;58.50;;;;;;5050974;28;20473;-84
2022/01/08 07:38:16;;;;;;;5.03;3.63;;;4.90;63.90;;;;;;5055654;28;20057;-83
2022/01/08 07:40:41;;;;;;;4.43;3.33;;;5.00;59.10;;;;;;5038847;28;20037;-84
2022/01/08 07:43:07;;;;;;;4.80;3.20;;;5.00;57.50;;;;;;5054597;28;20067;-83
2022/01/08 07:45:33;;;;;;;4.68;3.20;;;5.10;57.30;;;;;;5048820;28;20044;-83
2022/01/08 07:47:58;;;;;;;4.97;3.20;;;5.10;57.30;;;;;;5047669;28;20041;-83
2022/01/08 07:50:24;;;;;;;7.65;4.95;;;5.20;62.90;;;;;;5055733;28;20064;-85
2022/01/08 07:52:50;;;;;;;7.25;4.90;;;5.20;56.20;;;;;;5056244;28;20060;-83
2022/01/08 07:55:15;;;;;;;6.55;4.47;;;5.00;57.20;;;;;;5049825;28;20059;-83
2022/01/08 07:57:41;;;;;;;6.18;4.15;;;5.00;57.20;;;;;;5034422;28;20515;-83
2022/01/08 08:00:07;;;;;;;6.10;4.80;;;4.90;57.00;;;;;;5054293;28;20560;-84
2022/01/08 08:02:33;;;;;;;6.88;4.40;;;5.00;57.10;;;;;;5054950;28;20091;-81
2022/01/08 08:04:59;;;;;;;6.68;4.15;;;4.80;57.20;;;;;;5034446;28;20041;-81
2022/01/08 08:07:31;;;;;;;8.00;4.85;;;4.80;57.40;;;;;;5040956;28;20485;-81
2022/01/08 08:09:57;;;;;;;8.05;4.72;;;4.70;57.30;;;;;;5035120;28;20132;-81
2022/01/08 08:12:23;;;;;;;6.80;4.80;;;4.70;57.60;;;;;;5052308;28;20501;-80
2022/01/08 08:14:49;;;;;;;8.68;5.47;;;4.80;57.90;;;;;;5054201;28;20039;-81
2022/01/08 08:17:14;;;;;;;7.78;4.88;;;4.80;57.70;;;;;;5029345;28;20084;-81
2022/01/08 08:19:40;;;;;;;6.80;5.07;;;4.80;57.40;;;;;;5045024;28;20037;-81
2022/01/08 08:22:06;;;;;;;7.38;4.63;;;4.80;57.50;;;;;;5053295;28;20124;-81
2022/01/08 08:24:31;;;;;;;9.00;5.78;;;4.60;57.70;;;;;;5046012;28;20041;-81
2022/01/08 08:26:57;;;;;;;7.50;4.40;;;4.70;57.90;;;;;;5054273;28;20033;-83
2022/01/08 08:29:23;;;;;;;5.50;4.30;;;4.70;58.00;;;;;;5047768;28;20140;-83
2022/01/08 08:31:48;;;;;;;7.18;4.25;;;4.80;58.10;;;;;;5054928;28;20056;-83
2022/01/08 08:34:14;;;;;;;6.45;4.38;;;4.90;58.00;;;;;;5052850;28;20052;-83
2022/01/08 08:36:40;;;;;;;5.78;4.07;;;4.90;57.50;;;;;;5046319;28;20041;-83
2022/01/08 08:39:05;;;;;;;5.35;4.65;;;4.90;57.30;;;;;;5048780;28;20339;-83
2022/01/08 08:41:31;;;;;;;6.45;4.72;;;4.90;56.90;;;;;;5035802;28;20482;-83
2022/01/08 08:43:57;;;;;;;7.90;4.57;;;5.00;56.90;;;;;;5039762;28;20049;-82
2022/01/08 08:46:24;;;;;;;8.65;5.25;;;5.00;56.10;;;;;;5044101;28;20045;-82
2022/01/08 08:48:49;;;;;;;10.05;5.80;;;5.00;55.80;;;;;;5048936;28;20131;-82
2022/01/08 08:51:15;;;;;;;7.50;4.90;;;5.10;56.70;;;;;;5044559;28;20112;-82
2022/01/08 08:53:41;;;;;;;6.43;5.00;;;5.40;57.20;;;;;;5047066;28;20767;-82
2022/01/08 08:56:07;;;;;;;8.13;5.25;;;5.50;56.70;;;;;;5027207;28;20071;-81
2022/01/08 08:58:33;;;;;;;9.88;7.32;;;5.40;55.90;;;;;;5047619;28;20040;-81
2022/01/08 09:00:58;;;;;;;16.02;9.45;;;5.50;55.90;;;;;;5031868;28;20039;-81
2022/01/08 09:03:24;;;;;;;10.18;7.47;;;5.40;55.00;;;;;;5027994;28;20487;-82
2022/01/08 09:05:50;;;;;;;16.20;9.07;;;5.50;55.80;;;;;;5028365;28;20098;-82
2022/01/08 09:08:15;;;;;;;9.43;6.88;;;5.70;55.80;;;;;;5047989;28;20098;-81
2022/01/08 09:10:41;;;;;;;10.07;6.32;;;5.80;55.90;;;;;;5044729;28;20029;-81
2022/01/08 09:13:07;;;;;;;11.05;7.65;;;6.00;55.80;;;;;;5043415;28;20029;-81
2022/01/08 09:15:37;;;;;;;11.50;8.02;;;5.90;53.30;;;;;;5046040;28;20044;-81
2022/01/08 09:18:02;;;;;;;8.35;5.38;;;5.70;54.10;;;;;;5048505;28;20031;-82
2022/01/08 09:20:29;;;;;;;8.63;5.82;;;5.60;53.80;;;;;;5050026;28;20482;-81
2022/01/08 09:22:55;;;;;;;8.60;4.80;;;5.40;53.00;;;;;;5048147;28;20021;-81
2022/01/08 09:25:21;;;;;;;9.48;7.10;;;5.40;53.80;;;;;;5043836;28;20637;-81
2022/01/08 09:27:47;;;;;;;9.93;7.15;;;5.10;53.00;;;;;;5041678;28;20033;-81
2022/01/08 09:30:13;;;;;;;10.02;7.18;;;4.90;54.30;;;;;;5045141;28;20053;-81
2022/01/08 09:32:40;;;;;;;11.77;6.97;;;5.10;54.80;;;;;;5051334;28;20487;-81
2022/01/08 09:35:07;;;;;;;7.00;5.53;;;5.40;54.70;;;;;;5044838;28;20046;-81
2022/01/08 09:37:33;;;;;;;6.25;4.95;;;5.50;54.70;;;;;;5031605;28;20029;-81
2022/01/08 09:39:59;;;;;;;8.23;5.20;;;5.70;53.50;;;;;;5049355;28;20033;-81
2022/01/08 09:42:24;;;;;;;6.35;5.13;;;5.90;54.20;;;;;;5026969;28;20497;-82
2022/01/08 09:44:51;;;;;;;8.15;5.50;;;6.10;53.60;;;;;;5045062;28;20438;-83
2022/01/08 09:47:17;;;;;;;5.13;4.18;;;6.20;53.30;;;;;;5033351;28;20049;-84
2022/01/08 09:49:42;;;;;;;7.60;5.30;;;6.30;52.50;;;;;;5049079;28;20045;-82
2022/01/08 09:52:08;;;;;;;10.88;6.93;;;6.50;51.60;;;;;;5051684;28;20033;-81
2022/01/08 09:54:35;;;;;;;6.93;5.50;;;6.50;50.70;;;;;;5040764;28;20061;-79
2022/01/08 09:57:01;;;;;;;7.82;5.50;;;6.40;51.10;;;;;;5031358;28;20025;-81
2022/01/08 09:59:28;;;;;;;9.00;7.00;;;6.50;52.10;;;;;;5044837;28;20037;-78
2022/01/08 10:01:59;;;;;;;7.53;5.30;;;6.40;50.90;;;;;;5028502;28;20140;-79
2022/01/08 10:04:36;;;;;;;7.25;5.68;;;6.60;52.50;;;;;;5049016;28;20029;-78
2022/01/08 10:07:13;;;;;;;8.48;6.05;;;6.80;52.80;;;;;;5051713;28;20029;-79
2022/01/08 10:09:56;;;;;;;10.35;7.60;;;6.90;52.50;;;;;;5052418;28;20047;-79
2022/01/08 10:12:35;;;;;;;8.77;6.65;;;7.10;51.20;;;;;;5043915;28;20032;-80
2022/01/08 10:17:46;;;;;;;8.85;6.00;;;6.90;50.20;;;;;;5055178;28;20035;-81
2022/01/08 10:20:12;;;;;;;8.23;5.75;;;7.10;50.10;;;;;;5054031;28;20049;-81
2022/01/08 10:22:37;;;;;;;5.72;4.40;;;7.30;50.60;;;;;;5053402;28;20033;-80
2022/01/08 10:25:10;;;;;;;7.72;4.90;;;7.40;47.70;;;;;;5036905;28;20037;-80
2022/01/08 10:27:36;;;;;;;7.15;4.80;;;7.50;48.40;;;;;;5051777;28;20066;-83
2022/01/08 10:30:02;;;;;;;11.70;5.20;;;7.70;48.10;;;;;;5055935;28;20048;-84
2022/01/08 10:32:27;;;;;;;6.45;4.72;;;7.60;44.70;;;;;;5056318;28;20033;-84
2022/01/08 10:34:53;;;;;;;5.93;4.55;;;7.70;44.50;;;;;;5024517;28;20045;-83
2022/01/08 10:37:19;;;;;;;7.15;4.60;;;7.80;45.10;;;;;;5036195;28;20370;-83
2022/01/08 10:39:53;;;;;;;7.07;5.03;;;8.00;47.10;;;;;;5049130;28;20500;-83
2022/01/08 10:42:19;;;;;;;6.50;5.20;;;8.30;45.60;;;;;;5055555;28;20134;-84
2022/01/08 10:44:50;;;;;;;7.65;5.07;;;8.50;46.00;;;;;;5051815;28;20445;-84
2022/01/08 10:47:20;;;;;;;8.20;6.15;;;8.70;43.60;;;;;;5054009;28;20033;-84
2022/01/08 10:49:56;;;;;;;7.18;5.20;;;8.60;44.10;;;;;;5038061;28;21070;-86
2022/01/08 10:52:22;;;;;;;9.60;6.20;;;8.70;44.40;;;;;;5055086;28;20124;-85
2022/01/08 10:55:09;;;;;;;8.82;6.05;;;8.60;43.60;;;;;;5043254;28;20124;-85
2022/01/08 10:57:39;;;;;;;7.93;5.60;;;8.80;43.20;;;;;;5035715;28;20044;-78
2022/01/08 11:00:11;;;;;;;7.10;5.28;;;9.10;45.40;;;;;;5029192;28;20042;-78
2022/01/08 11:02:38;;;;;;;8.73;5.32;;;9.40;45.20;;;;;;5041494;28;20496;-77
2022/01/08 11:05:08;;;;;;;7.97;5.40;;;9.60;43.60;;;;;;5052857;28;20029;-78
2022/01/08 11:07:35;;;;;;;7.90;5.28;;;9.60;43.00;;;;;;5036543;28;20029;-81
2022/01/08 11:10:06;;;;;;;7.25;5.63;;;9.50;43.40;;;;;;5054722;28;20469;-81
2022/01/08 11:12:40;;;;;;;7.22;5.68;;;9.70;43.20;;;;;;5048589;28;20523;-82
2022/01/08 11:17:45;;;;;;;7.63;5.57;;;9.90;41.30;;;;;;5048018;28;20469;-82
2022/01/08 11:20:21;;;;;;;8.85;5.85;;;9.80;41.70;;;;;;5053801;28;20114;-81
2022/01/08 11:22:55;;;;;;;8.07;5.57;;;9.90;42.90;;;;;;5043147;28;20059;-82
2022/01/08 11:25:32;;;;;;;10.75;6.63;;;9.90;42.40;;;;;;5052839;28;20040;-81
2022/01/08 11:28:00;;;;;;;10.82;7.55;;;9.90;42.00;;;;;;5048167;28;20073;-81
2022/01/08 11:30:35;;;;;;;9.95;7.70;;;9.90;39.60;;;;;;5049482;28;20029;-81
2022/01/08 11:33:08;;;;;;;7.45;5.45;;;9.30;41.40;;;;;;5050608;28;20033;-81
2022/01/08 11:35:36;;;;;;;8.68;6.38;;;9.70;43.40;;;;;;5045919;28;20033;-82
2022/01/08 11:38:06;;;;;;;7.97;6.03;;;10.10;41.90;;;;;;5053347;28;20035;-82
2022/01/08 11:40:32;;;;;;;9.00;6.07;;;10.30;40.40;;;;;;5053644;28;20033;-78
2022/01/08 11:43:03;;;;;;;6.88;5.45;;;10.60;41.10;;;;;;5053772;28;20064;-82
2022/01/08 11:45:47;;;;;;;6.82;5.60;;;11.00;43.00;;;;;;5034864;28;20032;-81
2022/01/08 11:48:14;;;;;;;9.00;6.50;;;11.30;40.70;;;;;;5052636;28;20041;-82
2022/01/08 11:50:48;;;;;;;8.40;6.50;;;12.00;38.80;;;;;;5046518;28;20033;-82
2022/01/08 11:53:18;;;;;;;9.93;6.88;;;11.80;36.20;;;;;;5051709;28;20108;-82
2022/01/08 11:55:47;;;;;;;7.15;5.68;;;12.70;36.50;;;;;;5033631;28;20029;-82
2022/01/08 11:58:26;;;;;;;7.22;5.70;;;13.50;37.00;;;;;;5048807;28;20036;-82
2022/01/08 12:00:58;;;;;;;7.15;6.40;;;14.60;35.40;;;;;;5030193;28;20087;-82
2022/01/08 12:03:32;;;;;;;6.20;5.53;;;16.00;33.00;;;;;;5030829;28;20041;-82
2022/01/08 12:06:29;;;;;;;6.68;5.53;;;17.20;31.10;;;;;;5033084;28;20468;-80
2022/01/08 12:09:26;;;;;;;6.55;5.78;;;18.40;28.90;;;;;;5039630;28;20044;-83
2022/01/08 12:12:00;;;;;;;8.50;6.88;;;18.30;28.90;;;;;;5043909;28;20033;-82
2022/01/08 12:14:30;;;;;;;7.82;6.20;;;18.40;28.00;;;;;;5043057;28;20037;-80
2022/01/08 12:17:17;;;;;;;7.30;6.03;;;18.80;26.80;;;;;;5052852;28;20037;-80
2022/01/08 12:19:52;;;;;;;7.00;6.30;;;18.70;27.30;;;;;;5048058;28;20037;-81
2022/01/08 12:22:20;;;;;;;7.57;6.78;;;18.80;27.50;;;;;;5026998;28;20393;-80
2022/01/08 12:25:00;;;;;;;9.32;8.05;;;19.00;27.50;;;;;;5049463;28;20041;-79
2022/01/08 12:27:35;;;;;;;8.57;7.53;;;18.10;27.90;;;;;;5051785;28;20098;-78
2022/01/08 12:30:35;;;;;;;7.82;7.03;;;17.80;28.40;;;;;;5050123;28;20049;-78
2022/01/08 12:33:21;;;;;;;9.57;7.40;;;18.50;28.10;;;;;;5023292;28;20485;-78
2022/01/08 12:35:47;;;;;;;10.25;7.63;;;18.80;26.80;;;;;;5048468;28;20037;-78
2022/01/08 12:38:28;;;;;;;9.52;8.27;;;19.00;28.00;;;;;;5033693;28;20476;-78
2022/01/08 12:40:55;;;;;;;8.75;7.72;;;19.20;27.60;;;;;;5044116;28;20481;-78
2022/01/08 12:43:23;;;;;;;7.88;7.07;;;18.90;27.60;;;;;;5050065;28;20469;-78
2022/01/08 12:45:51;;;;;;;8.23;7.15;;;18.70;27.30;;;;;;5029170;28;20167;-78
2022/01/08 12:48:18;;;;;;;10.50;7.35;;;16.90;28.30;;;;;;5044581;28;20057;-78
2022/01/08 12:50:44;;;;;;;10.32;8.15;;;17.10;29.20;;;;;;5045767;28;20045;-79
2022/01/08 12:53:22;;;;;;;10.25;8.23;;;17.20;29.00;;;;;;5039640;28;20033;-78
2022/01/08 12:55:53;;;;;;;14.38;9.63;;;17.00;29.20;;;;;;5042518;28;20400;-79
2022/01/08 12:58:26;;;;;;;12.38;8.88;;;16.80;29.00;;;;;;5029035;28;20044;-78
2022/01/08 13:01:02;;;;;;;9.43;7.22;;;16.20;29.40;;;;;;5048323;28;20091;-78
2022/01/08 13:03:39;;;;;;;9.27;7.45;;;16.30;29.10;;;;;;5024824;28;20044;-78
2022/01/08 13:06:30;;;;;;;8.55;7.15;;;16.40;30.10;;;;;;5041506;28;20060;-78
2022/01/08 13:08:57;;;;;;;11.25;8.25;;;16.90;29.70;;;;;;5043942;28;20041;-80
2022/01/08 13:11:28;;;;;;;9.07;7.82;;;16.60;29.00;;;;;;5049120;28;20069;-79
2022/01/08 13:14:02;;;;;;;10.15;7.80;;;16.90;29.40;;;;;;5019877;28;20036;-80
2022/01/08 13:16:34;;;;;;;8.23;7.40;;;16.20;29.40;;;;;;5016755;28;20069;-76
2022/01/08 13:19:01;;;;;;;8.35;7.00;;;16.20;29.80;;;;;;5038232;28;20033;-76
2022/01/08 13:21:29;;;;;;;7.25;6.55;;;16.60;29.70;;;;;;5042536;28;20045;-76
2022/01/08 13:23:57;;;;;;;9.05;7.13;;;16.90;29.60;;;;;;5048042;28;20067;-75
2022/01/08 13:26:33;;;;;;;9.55;7.10;;;17.10;29.50;;;;;;5049918;28;20049;-76
2022/01/08 13:29:00;;;;;;;8.20;6.88;;;17.10;29.10;;;;;;5031099;28;20069;-76
2022/01/08 13:31:40;;;;;;;8.25;7.03;;;17.00;29.30;;;;;;5048854;28;20473;-76
2022/01/08 13:34:06;;;;;;;13.77;7.03;;;16.50;29.60;;;;;;5048960;28;20044;-75
2022/01/08 13:36:32;;;;;;;7.93;6.57;;;16.10;29.90;;;;;;5049108;28;20029;-75
2022/01/08 13:38:57;;;;;;;9.27;7.40;;;15.40;30.40;;;;;;5046445;28;20047;-75
2022/01/08 13:41:23;;;;;;;12.57;9.13;;;14.80;31.60;;;;;;5047491;28;20040;-75
2022/01/08 13:44:01;;;;;;;12.98;8.80;;;14.20;32.30;;;;;;5042857;28;20041;-75
2022/01/08 13:46:29;;;;;;;15.63;10.63;;;13.70;33.10;;;;;;5051892;28;20118;-75
2022/01/08 13:48:56;;;;;;;9.82;7.97;;;13.30;33.90;;;;;;5032077;28;20033;-76
2022/01/08 13:51:24;;;;;;;10.82;7.32;;;12.60;34.40;;;;;;5049477;28;20083;-76
2022/01/08 13:54:05;;;;;;;9.48;7.20;;;12.00;35.60;;;;;;5054912;28;20040;-76
2022/01/08 13:56:32;;;;;;;12.52;8.80;;;12.00;36.10;;;;;;5053481;28;20021;-76
2022/01/08 13:59:15;;;;;;;10.50;7.55;;;12.00;37.30;;;;;;5036988;28;20086;-80
2022/01/08 14:01:49;;;;;;;11.18;7.13;;;11.90;36.80;;;;;;5051895;28;20037;-79
2022/01/08 14:04:16;;;;;;;9.45;6.90;;;11.50;37.20;;;;;;5044844;28;20124;-83
2022/01/08 14:06:45;;;;;;;7.68;6.10;;;11.50;37.50;;;;;;5050796;28;20049;-80
2022/01/08 14:09:17;;;;;;;9.40;7.32;;;11.40;38.00;;;;;;5052619;28;20110;-81
2022/01/08 14:11:44;;;;;;;10.35;7.50;;;11.30;38.30;;;;;;5033155;28;20040;-85
2022/01/08 14:14:19;;;;;;;9.10;7.13;;;11.10;38.80;;;;;;5049998;28;20041;-84
2022/01/08 14:16:45;;;;;;;9.52;7.47;;;11.10;39.40;;;;;;5045826;28;20128;-78
2022/01/08 14:19:12;;;;;;;9.07;7.47;;;10.90;38.90;;;;;;5051438;28;20049;-78
2022/01/08 14:21:56;;;;;;;9.70;7.25;;;10.50;39.50;;;;;;5048281;28;20040;-78
2022/01/08 14:24:25;;;;;;;9.75;7.55;;;10.50;40.50;;;;;;5018692;28;20041;-78
2022/01/08 14:27:11;;;;;;;9.10;6.95;;;10.50;40.20;;;;;;5038123;28;20096;-85
2022/01/08 14:29:40;;;;;;;10.07;8.20;;;10.50;40.30;;;;;;5037992;28;20042;-84
2022/01/08 14:32:12;;;;;;;10.30;8.27;;;10.60;40.90;;;;;;5039099;28;20041;-84
2022/01/08 14:34:50;;;;;;;11.02;8.50;;;10.60;41.20;;;;;;5039150;28;20041;-83
2022/01/08 14:37:33;;;;;;;9.15;7.55;;;10.50;41.10;;;;;;5009550;28;20125;-84
2022/01/08 14:40:14;;;;;;;10.85;8.10;;;10.50;41.00;;;;;;5047610;28;20139;-83
2022/01/08 14:42:40;;;;;;;9.40;7.82;;;10.50;41.40;;;;;;5057040;28;20040;-83
2022/01/08 14:45:06;;;;;;;10.38;8.23;;;10.40;41.50;;;;;;5050925;28;20034;-84
2022/01/08 14:47:40;;;;;;;9.55;7.65;;;10.40;41.90;;;;;;5057342;28;20027;-84
2022/01/08 14:50:12;;;;;;;8.32;6.85;;;10.10;41.50;;;;;;5038209;28;20624;-77
2022/01/08 14:52:39;;;;;;;9.77;7.70;;;10.00;41.70;;;;;;5056171;28;20029;-79
2022/01/08 14:55:06;;;;;;;9.80;8.18;;;10.10;42.20;;;;;;5022523;28;20095;-78
2022/01/08 14:57:32;;;;;;;9.07;7.97;;;10.10;42.90;;;;;;5035695;28;20030;-78
2022/01/08 14:59:58;;;;;;;10.88;8.18;;;10.10;42.40;;;;;;5036071;28;20052;-78
2022/01/08 15:02:24;;;;;;;9.80;8.38;;;10.10;42.00;;;;;;5018236;28;20088;-78
2022/01/08 15:04:50;;;;;;;10.90;8.00;;;10.10;42.10;;;;;;5035847;28;20056;-78
2022/01/08 15:07:16;;;;;;;9.85;8.48;;;10.00;42.00;;;;;;5035365;28;20033;-78
2022/01/08 15:09:42;;;;;;;10.43;8.50;;;10.00;42.30;;;;;;5035112;28;20504;-77
2022/01/08 15:12:08;;;;;;;12.38;9.45;;;10.00;42.70;;;;;;5035105;28;20032;-78
2022/01/08 15:14:35;;;;;;;10.57;8.98;;;9.90;43.20;;;;;;5039975;28;20392;-78
2022/01/08 15:17:02;;;;;;;15.02;10.43;;;9.80;43.40;;;;;;5055373;28;20036;-78
2022/01/08 15:19:28;;;;;;;11.52;8.68;;;9.70;43.60;;;;;;5054923;28;20084;-78
2022/01/08 15:21:54;;;;;;;12.50;9.20;;;9.60;43.80;;;;;;5054757;28;20044;-77
2022/01/08 15:24:19;;;;;;;10.40;8.85;;;9.50;44.10;;;;;;5055339;28;20040;-78
2022/01/08 15:26:45;;;;;;;11.00;9.20;;;9.60;44.30;;;;;;5037028;28;20065;-78
2022/01/08 15:29:11;;;;;;;11.73;9.20;;;9.60;44.60;;;;;;5055176;28;20095;-78
2022/01/08 15:31:37;;;;;;;12.88;9.23;;;9.60;44.50;;;;;;5037487;28;20075;-78
2022/01/08 15:34:03;;;;;;;10.15;8.25;;;9.60;44.70;;;;;;5055147;28;20037;-78
2022/01/08 15:36:29;;;;;;;16.08;8.65;;;9.70;44.90;;;;;;5045261;28;20032;-77
2022/01/08 15:38:55;;;;;;;9.75;8.48;;;9.60;44.30;;;;;;5034845;28;20049;-77
2022/01/08 15:41:21;;;;;;;10.10;8.98;;;9.50;44.90;;;;;;5017391;28;20041;-78
2022/01/08 15:43:46;;;;;;;11.68;8.77;;;9.40;45.10;;;;;;5034919;28;20132;-77
2022/01/08 15:46:12;;;;;;;10.48;8.75;;;9.40;45.40;;;;;;5053651;28;20064;-78
2022/01/08 15:48:38;;;;;;;10.27;8.95;;;9.30;45.50;;;;;;5049192;28;20473;-79
2022/01/08 15:51:03;;;;;;;9.30;7.93;;;9.30;46.00;;;;;;5038376;28;20505;-79
2022/01/08 15:53:29;;;;;;;12.35;9.48;;;9.40;46.20;;;;;;5039356;28;20037;-80
2022/01/08 15:55:55;;;;;;;12.60;9.48;;;9.40;46.40;;;;;;5049117;28;20064;-80
2022/01/08 15:58:20;;;;;;;11.75;9.40;;;9.40;47.30;;;;;;5033488;28;20072;-79
2022/01/08 16:00:46;;;;;;;10.82;9.45;;;9.40;47.50;;;;;;5019332;28;20380;-79
2022/01/08 16:03:12;;;;;;;12.13;9.77;;;9.40;47.50;;;;;;5046727;28;20116;-79
2022/01/08 16:05:38;;;;;;;10.32;8.88;;;9.40;47.70;;;;;;5050317;28;20465;-79
2022/01/08 16:08:04;;;;;;;11.48;9.65;;;9.30;48.00;;;;;;5049110;28;20033;-81
2022/01/08 16:10:30;;;;;;;14.90;9.48;;;9.30;47.90;;;;;;5045688;28;20692;-80
2022/01/08 16:12:56;;;;;;;12.85;9.80;;;9.30;48.20;;;;;;5053245;28;20036;-85
2022/01/08 16:15:22;;;;;;;12.77;9.85;;;9.20;49.00;;;;;;5046637;28;20489;-84
2022/01/08 16:17:51;;;;;;;13.88;9.80;;;9.20;49.00;;;;;;5050382;28;20469;-85
2022/01/08 16:20:17;;;;;;;11.90;9.50;;;9.20;49.40;;;;;;5048228;28;20045;-85
2022/01/08 16:22:43;;;;;;;13.20;9.77;;;9.10;49.20;;;;;;5051276;28;20538;-85
2022/01/08 16:25:10;;;;;;;10.90;9.30;;;9.00;49.60;;;;;;5041453;28;20038;-85
2022/01/08 16:27:36;;;;;;;12.90;10.23;;;9.00;49.80;;;;;;5046081;28;20069;-85
2022/01/08 16:30:02;;;;;;;14.95;10.70;;;9.00;50.00;;;;;;5035472;28;20430;-85
2022/01/08 16:32:27;;;;;;;17.38;12.48;;;8.90;50.00;;;;;;5033250;28;20056;-85
2022/01/08 16:34:53;;;;;;;15.57;11.68;;;8.90;49.70;;;;;;5048833;28;20113;-85
2022/01/08 16:37:19;;;;;;;16.27;11.32;;;8.80;49.30;;;;;;5053683;28;20492;-85
2022/01/08 16:39:44;;;;;;;13.02;10.20;;;8.70;49.30;;;;;;5050899;28;20037;-85
2022/01/08 16:42:10;;;;;;;13.13;9.90;;;8.70;49.60;;;;;;5055274;28;20519;-85
2022/01/08 16:44:36;;;;;;;14.20;10.70;;;8.70;49.40;;;;;;5047920;28;20112;-85
2022/01/08 16:47:03;;;;;;;14.77;11.73;;;8.60;49.40;;;;;;5048566;28;20447;-85
2022/01/08 16:49:30;;;;;;;15.32;11.13;;;8.50;49.50;;;;;;5050797;28;20045;-86
2022/01/08 16:51:55;;;;;;;16.80;12.65;;;8.40;49.80;;;;;;5047498;28;20035;-85
2022/01/08 16:54:21;;;;;;;16.40;12.27;;;8.40;50.00;;;;;;5046814;28;20120;-84
2022/01/08 16:56:47;;;;;;;15.85;12.50;;;8.30;50.20;;;;;;5027147;28;20033;-85
2022/01/08 16:59:14;;;;;;;15.20;12.00;;;8.30;50.60;;;;;;5050927;28;20071;-85
2022/01/08 17:01:40;;;;;;;20.17;13.68;;;8.30;50.70;;;;;;5048147;28;20492;-86
2022/01/08 17:04:06;;;;;;;15.43;12.07;;;8.30;51.00;;;;;;5032421;28;20049;-84
2022/01/08 17:06:31;;;;;;;18.77;13.50;;;8.20;51.70;;;;;;5027389;28;20033;-78
2022/01/08 17:08:57;;;;;;;17.00;11.68;;;8.10;51.30;;;;;;5049494;28;20041;-79
2022/01/08 17:11:23;;;;;;;17.88;12.98;;;8.00;51.40;;;;;;5046898;28;20021;-86
2022/01/08 17:13:49;;;;;;;15.90;12.27;;;8.00;51.80;;;;;;5017099;28;20041;-86
2022/01/08 17:16:14;;;;;;;16.15;12.50;;;8.10;51.90;;;;;;5049780;28;20033;-84
2022/01/08 17:18:40;;;;;;;16.65;12.68;;;8.10;52.10;;;;;;5036168;28;20092;-84
2022/01/08 17:21:06;;;;;;;18.30;13.63;;;8.10;52.50;;;;;;5054239;28;20462;-84
2022/01/08 17:23:32;;;;;;;21.80;14.45;;;8.00;52.50;;;;;;5054909;28;20037;-85
2022/01/08 17:26:00;;;;;;;21.75;14.90;;;8.10;52.60;;;;;;5054289;28;20104;-84
2022/01/08 17:28:26;;;;;;;20.88;15.80;;;8.00;52.80;;;;;;5054989;28;20454;-85
2022/01/08 17:30:53;;;;;;;19.42;15.38;;;7.90;53.00;;;;;;5055681;28;20099;-85
2022/01/08 17:33:19;;;;;;;23.85;16.45;;;7.90;53.30;;;;;;5035819;28;20045;-86
2022/01/08 17:35:45;;;;;;;20.83;15.48;;;7.80;53.50;;;;;;5016115;28;20040;-86
2022/01/08 17:38:11;;;;;;;23.23;18.35;;;7.90;53.90;;;;;;5048598;28;20037;-85
2022/01/08 17:40:39;;;;;;;22.75;17.20;;;7.80;53.90;;;;;;5049587;28;20032;-84
2022/01/08 17:43:05;;;;;;;24.75;17.70;;;7.80;54.20;;;;;;5054661;28;20108;-84
2022/01/08 17:45:31;;;;;;;24.52;18.45;;;7.70;54.70;;;;;;5047891;28;20090;-85
2022/01/08 17:47:59;;;;;;;23.83;18.38;;;7.60;54.70;;;;;;5015658;28;20175;-85
2022/01/08 17:50:25;;;;;;;23.73;17.55;;;7.60;55.00;;;;;;5032771;28;20041;-81
2022/01/08 17:52:51;;;;;;;24.00;18.05;;;7.60;55.20;;;;;;5031307;28;20029;-81
2022/01/08 17:55:17;;;;;;;23.55;16.85;;;7.60;55.30;;;;;;5023591;28;20406;-81
2022/01/08 17:57:42;;;;;;;23.60;17.05;;;7.60;55.40;;;;;;5041113;28;20119;-81
2022/01/08 18:00:14;;;;;;;24.25;17.60;;;7.60;55.50;;;;;;5033112;28;20033;-81
2022/01/08 18:02:40;;;;;;;28.77;19.05;;;7.60;55.70;;;;;;5047551;28;20069;-81
2022/01/08 18:05:07;;;;;;;26.15;19.00;;;7.60;56.00;;;;;;5040483;28;20478;-81
2022/01/08 18:07:33;;;;;;;28.88;20.27;;;7.50;56.10;;;;;;5027021;28;20698;-81
2022/01/08 18:10:00;;;;;;;29.20;20.80;;;7.50;56.20;;;;;;5033000;28;20494;-80
2022/01/08 18:12:26;;;;;;;26.80;18.65;;;7.40;56.30;;;;;;5040755;28;20052;-80
2022/01/08 18:14:51;;;;;;;26.67;18.98;;;7.40;56.50;;;;;;5040423;28;20038;-80
2022/01/08 18:17:17;;;;;;;22.90;18.38;;;7.40;56.60;;;;;;5020298;28;20132;-80
2022/01/08 18:19:44;;;;;;;25.52;18.52;;;7.40;56.90;;;;;;5038270;28;20049;-81
2022/01/08 18:22:10;;;;;;;25.48;18.08;;;7.40;56.90;;;;;;5044798;28;20032;-81
2022/01/08 18:24:36;;;;;;;24.77;18.45;;;7.30;57.10;;;;;;5044799;28;20742;-80
2022/01/08 18:27:02;;;;;;;26.02;19.20;;;7.30;57.30;;;;;;5018299;28;20029;-80
2022/01/08 18:29:28;;;;;;;25.52;18.27;;;7.30;57.60;;;;;;5027346;28;20045;-80
2022/01/08 18:31:53;;;;;;;26.23;18.52;;;7.30;58.00;;;;;;5031470;28;20072;-80
2022/01/08 18:34:19;;;;;;;27.00;18.85;;;7.30;58.00;;;;;;5027492;28;20103;-80
2022/01/08 18:36:45;;;;;;;26.42;18.33;;;7.20;58.30;;;;;;5044447;28;20048;-80
2022/01/08 18:39:13;;;;;;;28.27;19.88;;;7.30;58.50;;;;;;5035957;28;20076;-80
2022/01/08 18:41:39;;;;;;;26.85;20.08;;;7.30;58.70;;;;;;5051162;28;20048;-80
2022/01/08 18:44:05;;;;;;;22.63;17.77;;;7.30;59.00;;;;;;5047699;28;20036;-80
2022/01/08 18:46:31;;;;;;;29.35;20.25;;;7.30;59.00;;;;;;5050606;28;20041;-84
2022/01/08 18:48:57;;;;;;;27.83;18.65;;;7.20;59.30;;;;;;5052896;28;20712;-84
2022/01/08 18:51:22;;;;;;;26.70;19.25;;;7.20;59.50;;;;;;5037053;28;20457;-84
2022/01/08 18:53:49;;;;;;;25.55;19.00;;;7.20;59.70;;;;;;5053056;28;20448;-84
2022/01/08 18:56:14;;;;;;;25.13;18.75;;;7.20;59.90;;;;;;5043982;28;20040;-84
2022/01/08 18:58:40;;;;;;;24.27;17.70;;;7.20;60.00;;;;;;5047700;28;20119;-83
2022/01/08 19:01:06;;;;;;;26.48;19.02;;;7.20;60.10;;;;;;5052671;28;20492;-84
2022/01/08 19:03:32;;;;;;;25.33;19.15;;;7.20;60.40;;;;;;5038754;28;20386;-84
2022/01/08 19:05:58;;;;;;;24.80;17.63;;;7.20;60.40;;;;;;5042692;28;20037;-84
2022/01/08 19:08:23;;;;;;;25.80;17.95;;;7.20;60.60;;;;;;5041993;28;20037;-84
2022/01/08 19:10:49;;;;;;;26.48;19.65;;;7.20;60.70;;;;;;5047510;28;20041;-84
2022/01/08 19:13:15;;;;;;;27.00;19.98;;;7.20;60.90;;;;;;5051988;28;20044;-84
2022/01/08 19:15:42;;;;;;;29.00;20.10;;;7.20;61.00;;;;;;5041835;28;20037;-84
2022/01/08 19:18:10;;;;;;;30.45;21.27;;;7.20;61.20;;;;;;5051758;28;20081;-84
2022/01/08 19:20:36;;;;;;;27.98;19.88;;;7.20;61.30;;;;;;5049700;28;20032;-84
2022/01/08 19:23:01;;;;;;;25.58;19.73;;;7.10;61.40;;;;;;5040447;28;20097;-83
2022/01/08 19:25:28;;;;;;;30.00;20.63;;;7.10;61.50;;;;;;5037043;28;20610;-85
2022/01/08 19:27:57;;;;;;;29.85;20.90;;;7.10;61.60;;;;;;5034562;28;20094;-82
2022/01/08 19:30:23;;;;;;;29.92;22.10;;;7.10;61.70;;;;;;5047858;28;20116;-85
2022/01/08 19:32:49;;;;;;;30.02;21.48;;;7.10;62.00;;;;;;5033798;28;20037;-84
2022/01/08 19:35:14;;;;;;;33.17;21.90;;;7.10;62.30;;;;;;5033484;28;20048;-80
2022/01/08 19:37:41;;;;;;;33.72;22.55;;;7.00;62.30;;;;;;5045102;28;20036;-80
2022/01/08 19:40:07;;;;;;;31.02;22.55;;;7.00;62.60;;;;;;5022456;28;20375;-84
2022/01/08 19:42:33;;;;;;;34.85;24.92;;;7.00;62.60;;;;;;5024994;28;20116;-84
2022/01/08 19:44:59;;;;;;;31.27;23.17;;;7.00;62.70;;;;;;5036469;28;20579;-84
2022/01/08 19:47:24;;;;;;;29.73;21.95;;;6.90;62.90;;;;;;5052903;28;20040;-84
2022/01/08 19:49:50;;;;;;;33.10;23.02;;;6.80;63.20;;;;;;5053061;28;20098;-84
2022/01/08 19:52:16;;;;;;;31.40;24.00;;;6.80;63.40;;;;;;5050854;28;20128;-85
2022/01/08 19:54:42;;;;;;;32.83;22.98;;;6.80;63.60;;;;;;5045710;28;20052;-84
2022/01/08 19:57:12;;;;;;;30.98;23.67;;;6.80;63.60;;;;;;5016446;28;20037;-84
2022/01/08 19:59:44;;;;;;;36.53;25.30;;;6.70;64.10;;;;;;5021441;28;20056;-83
2022/01/08 20:02:11;;;;;;;33.03;23.90;;;6.70;64.10;;;;;;5032571;28;20033;-84
2022/01/08 20:04:37;;;;;;;38.53;26.42;;;6.70;64.30;;;;;;5033018;28;20041;-84
2022/01/08 20:07:04;;;;;;;31.20;23.65;;;6.70;64.50;;;;;;5048566;28;20049;-83
2022/01/08 20:09:34;;;;;;;40.60;26.02;;;6.70;64.60;;;;;;5036626;28;20524;-84
2022/01/08 20:12:01;;;;;;;38.08;26.20;;;6.70;64.80;;;;;;5020683;28;20033;-84